Time;durP1;ratioP1;P1;durP2;ratioP2;P2;SDS_P1;SDS_P2;PMS_P1;PMS_P2;Temp;Humidity;BMP_temperature;BMP_pressure;BME280_temperature;BME280_humidity;BME280_pressure;Samples;Min_cycle;Max_cycle;Signal;HPM_P1;HPM_P2
2021/10/26 00:01:37;;;;;;;77.45;37.38;;;1.20;94.20;;;;;;5073348;28;20037;-93
2021/10/26 00:04:03;;;;;;;76.40;36.65;;;1.20;94.20;;;;;;5073243;28;20029;-93
2021/10/26 00:06:29;;;;;;;73.25;34.60;;;1.20;94.20;;;;;;5073022;28;20045;-93
2021/10/26 00:08:56;;;;;;;76.13;36.83;;;1.20;94.20;;;;;;5073218;28;20021;-94
2021/10/26 00:11:21;;;;;;;72.35;32.70;;;1.20;94.10;;;;;;5073205;28;20017;-93
2021/10/26 00:13:47;;;;;;;62.75;31.77;;;1.20;94.10;;;;;;5073469;28;20032;-93
2021/10/26 00:16:13;;;;;;;67.85;31.95;;;1.20;94.40;;;;;;5073247;28;20017;-93
2021/10/26 00:18:39;;;;;;;70.72;29.20;;;1.20;94.10;;;;;;5073017;28;20064;-92
2021/10/26 00:21:05;;;;;;;55.75;28.52;;;1.20;94.10;;;;;;5072757;28;20031;-93
2021/10/26 00:23:30;;;;;;;52.35;25.90;;;1.20;94.00;;;;;;5072969;28;20524;-93
2021/10/26 00:25:56;;;;;;;50.63;25.63;;;1.20;94.00;;;;;;5056616;28;20036;-92
2021/10/26 00:28:23;;;;;;;51.58;25.02;;;1.30;94.00;;;;;;5075035;28;20051;-93
2021/10/26 00:30:49;;;;;;;54.50;25.45;;;1.30;94.00;;;;;;5076925;28;20024;-94
2021/10/26 00:33:14;;;;;;;46.00;22.83;;;1.30;94.00;;;;;;5076815;28;20031;-92
2021/10/26 00:35:40;;;;;;;52.85;24.55;;;1.30;93.90;;;;;;5076490;28;20470;-93
2021/10/26 00:38:06;;;;;;;48.35;23.77;;;1.40;93.90;;;;;;5060333;28;20028;-93
2021/10/26 00:40:33;;;;;;;48.80;21.98;;;1.40;93.90;;;;;;5077320;28;20052;-93
2021/10/26 00:42:58;;;;;;;48.00;22.30;;;1.30;94.00;;;;;;5076676;28;20063;-93
2021/10/26 00:45:24;;;;;;;42.38;20.90;;;1.30;94.00;;;;;;5076438;28;20025;-92
2021/10/26 00:47:50;;;;;;;43.33;21.92;;;1.30;94.00;;;;;;5076878;28;20031;-92
2021/10/26 00:50:16;;;;;;;43.65;23.17;;;1.30;94.00;;;;;;5059849;28;20032;-93
2021/10/26 00:52:43;;;;;;;39.25;19.08;;;1.30;94.10;;;;;;5076665;28;20028;-93
2021/10/26 00:55:11;;;;;;;45.30;23.02;;;1.20;94.10;;;;;;5059732;28;20067;-93
2021/10/26 00:57:37;;;;;;;47.20;20.63;;;1.20;94.20;;;;;;5073161;28;20017;-92
2021/10/26 01:00:05;;;;;;;44.05;20.77;;;1.20;94.20;;;;;;5056472;28;20029;-93
2021/10/26 01:02:31;;;;;;;41.30;20.55;;;1.10;94.40;;;;;;5057104;28;20033;-92
2021/10/26 01:04:58;;;;;;;42.55;21.17;;;1.10;94.20;;;;;;5055998;28;20032;-93
2021/10/26 01:07:24;;;;;;;43.20;21.05;;;1.20;94.20;;;;;;5039668;28;20053;-93
2021/10/26 01:09:50;;;;;;;42.72;22.63;;;1.20;94.20;;;;;;5056038;28;20021;-93
2021/10/26 01:12:15;;;;;;;41.83;20.77;;;1.10;94.20;;;;;;5056189;28;20036;-93
2021/10/26 01:14:41;;;;;;;44.05;20.67;;;1.10;94.20;;;;;;5039447;28;20048;-93
2021/10/26 01:17:11;;;;;;;45.33;22.00;;;1.20;94.20;;;;;;5039841;28;20059;-93
2021/10/26 01:19:46;;;;;;;42.50;22.17;;;1.10;94.10;;;;;;5056022;28;20025;-93
2021/10/26 01:22:14;;;;;;;42.65;20.70;;;1.10;94.10;;;;;;5057408;28;20112;-92
2021/10/26 01:24:40;;;;;;;50.45;22.88;;;1.00;94.20;;;;;;5057358;28;20543;-92
2021/10/26 01:27:07;;;;;;;43.80;20.63;;;1.00;94.20;;;;;;5055773;28;20115;-93
2021/10/26 01:29:33;;;;;;;44.53;21.58;;;1.00;94.20;;;;;;5039672;28;20027;-91
2021/10/26 01:32:01;;;;;;;42.03;20.48;;;1.00;94.30;;;;;;5039283;28;20064;-92
2021/10/26 01:34:27;;;;;;;44.10;20.67;;;1.00;94.20;;;;;;5055634;28;20402;-92
2021/10/26 01:36:59;;;;;;;43.65;21.13;;;1.00;94.30;;;;;;5039435;28;20036;-92
2021/10/26 01:39:26;;;;;;;38.22;19.33;;;1.00;94.30;;;;;;5055315;28;20116;-92
2021/10/26 01:41:52;;;;;;;50.42;24.20;;;0.90;94.40;;;;;;5057062;28;20360;-92
2021/10/26 01:44:18;;;;;;;45.53;23.13;;;0.90;94.60;;;;;;5055335;28;20025;-92
2021/10/26 01:46:43;;;;;;;37.05;19.45;;;0.90;94.70;;;;;;5039047;28;20094;-92
2021/10/26 01:49:09;;;;;;;36.20;20.45;;;0.90;94.70;;;;;;5055387;28;20060;-92
2021/10/26 01:51:35;;;;;;;39.95;20.70;;;1.00;94.70;;;;;;5055252;28;20062;-93
2021/10/26 01:54:02;;;;;;;36.45;19.55;;;1.00;94.80;;;;;;5055302;28;20027;-92
2021/10/26 01:56:28;;;;;;;36.28;18.58;;;1.00;94.80;;;;;;5055574;28;20025;-93
2021/10/26 01:58:55;;;;;;;31.70;17.70;;;1.00;94.70;;;;;;5055244;28;20048;-92
2021/10/26 02:01:21;;;;;;;35.53;18.70;;;1.10;94.70;;;;;;5056902;28;20087;-92
2021/10/26 02:03:47;;;;;;;33.30;18.00;;;1.10;94.80;;;;;;5056720;28;20017;-92
2021/10/26 02:06:13;;;;;;;35.83;18.33;;;1.00;94.60;;;;;;5054951;28;20021;-92
2021/10/26 02:08:40;;;;;;;34.13;17.40;;;1.10;94.70;;;;;;5054809;28;20056;-93
2021/10/26 02:11:07;;;;;;;33.08;17.55;;;1.00;94.70;;;;;;5054884;28;20021;-93
2021/10/26 02:13:33;;;;;;;35.40;18.13;;;1.10;94.70;;;;;;5056386;28;20034;-93
2021/10/26 02:15:59;;;;;;;31.42;17.85;;;1.00;94.70;;;;;;5038700;28;20091;-93
2021/10/26 02:18:26;;;;;;;34.78;17.85;;;1.10;94.70;;;;;;5055059;28;20025;-93
2021/10/26 02:20:52;;;;;;;34.20;18.02;;;1.00;94.80;;;;;;5054994;28;20025;-94
2021/10/26 02:23:18;;;;;;;30.83;17.48;;;1.00;94.90;;;;;;5055361;28;20526;-93
2021/10/26 02:25:45;;;;;;;36.35;18.58;;;1.00;94.90;;;;;;5055889;28;20025;-93
2021/10/26 02:28:10;;;;;;;38.83;18.17;;;1.10;94.90;;;;;;5038414;28;20029;-93
2021/10/26 02:30:36;;;;;;;35.92;18.98;;;1.00;94.80;;;;;;5060601;28;20028;-93
2021/10/26 02:33:02;;;;;;;36.90;17.88;;;1.10;94.80;;;;;;5074424;28;20106;-92
2021/10/26 02:35:28;;;;;;;36.97;20.27;;;1.10;94.80;;;;;;5074240;28;20021;-93
2021/10/26 02:37:54;;;;;;;37.47;19.40;;;1.00;94.80;;;;;;5058160;28;20105;-92
2021/10/26 02:40:19;;;;;;;34.58;18.45;;;1.00;94.80;;;;;;5074179;28;20082;-93
2021/10/26 02:42:46;;;;;;;37.63;19.23;;;1.00;94.80;;;;;;5074392;28;20038;-92
2021/10/26 02:45:13;;;;;;;38.65;18.98;;;1.00;94.80;;;;;;5074830;28;20111;-93
2021/10/26 02:47:39;;;;;;;36.95;18.63;;;1.00;94.80;;;;;;5074477;28;20032;-92
2021/10/26 02:50:06;;;;;;;39.35;19.70;;;1.00;94.80;;;;;;5074355;28;20463;-93
2021/10/26 02:52:33;;;;;;;37.63;19.02;;;1.00;94.80;;;;;;5074882;28;20049;-93
2021/10/26 02:55:00;;;;;;;39.58;18.80;;;1.00;94.70;;;;;;5074531;28;20036;-93
2021/10/26 02:57:25;;;;;;;32.85;18.33;;;1.00;94.70;;;;;;5074179;28;20107;-93
2021/10/26 02:59:51;;;;;;;33.28;19.67;;;1.00;94.60;;;;;;5073771;28;20115;-93
2021/10/26 03:02:17;;;;;;;37.17;19.05;;;0.90;94.60;;;;;;5075104;28;20021;-94
2021/10/26 03:04:43;;;;;;;35.15;18.05;;;1.00;94.60;;;;;;5073589;28;20027;-93
2021/10/26 03:07:09;;;;;;;32.45;17.45;;;0.90;94.60;;;;;;5057468;28;20106;-92
2021/10/26 03:09:35;;;;;;;29.50;17.60;;;0.90;94.60;;;;;;5074579;28;20033;-93
2021/10/26 03:12:03;;;;;;;32.88;18.23;;;0.90;94.60;;;;;;5074110;28;20581;-93
2021/10/26 03:14:29;;;;;;;30.60;17.08;;;1.00;94.60;;;;;;5074160;28;20025;-93
2021/10/26 03:16:55;;;;;;;35.50;18.30;;;1.00;94.60;;;;;;5073955;28;20033;-93
2021/10/26 03:19:20;;;;;;;35.75;18.65;;;1.00;94.50;;;;;;5073516;28;20031;-92
2021/10/26 03:21:46;;;;;;;32.15;17.27;;;1.00;94.50;;;;;;5075099;28;20033;-92
2021/10/26 03:24:13;;;;;;;36.92;19.98;;;1.00;94.50;;;;;;5073771;28;20116;-93
2021/10/26 03:26:38;;;;;;;37.33;19.63;;;0.90;94.40;;;;;;5073389;28;20231;-93
2021/10/26 03:29:04;;;;;;;37.28;20.15;;;0.90;94.50;;;;;;5074073;28;20052;-92
2021/10/26 03:31:30;;;;;;;38.88;20.08;;;0.90;94.60;;;;;;5057205;28;20067;-92
2021/10/26 03:33:56;;;;;;;37.33;19.88;;;0.70;95.00;;;;;;5057045;28;20029;-93
2021/10/26 03:36:22;;;;;;;32.47;18.00;;;0.70;94.90;;;;;;5073166;28;20024;-92
2021/10/26 03:38:50;;;;;;;38.38;19.80;;;0.70;94.90;;;;;;5057196;28;20123;-93
2021/10/26 03:41:17;;;;;;;36.95;17.08;;;0.70;95.00;;;;;;5074763;28;20074;-93
2021/10/26 03:43:43;;;;;;;43.80;21.90;;;0.70;95.00;;;;;;5073199;28;20028;-93
2021/10/26 03:46:09;;;;;;;42.20;20.92;;;0.60;95.20;;;;;;5073743;28;20055;-96
2021/10/26 03:48:35;;;;;;;39.05;20.55;;;0.50;95.50;;;;;;5075822;28;20467;-96
2021/10/26 03:51:02;;;;;;;35.58;19.35;;;0.60;95.30;;;;;;5075947;28;20025;-96
2021/10/26 03:53:28;;;;;;;40.42;19.10;;;0.60;95.30;;;;;;5058561;28;20020;-96
2021/10/26 03:55:55;;;;;;;43.78;20.95;;;0.60;95.20;;;;;;5060461;28;20056;-96
2021/10/26 03:58:21;;;;;;;40.78;20.02;;;0.60;95.20;;;;;;5075496;28;20024;-96
2021/10/26 04:00:47;;;;;;;39.95;20.48;;;0.70;95.10;;;;;;5091439;28;20035;-96
2021/10/26 04:03:13;;;;;;;39.80;19.92;;;0.70;95.00;;;;;;5058499;28;20082;-96
2021/10/26 04:05:54;;;;;;;34.92;19.48;;;0.70;94.90;;;;;;5077322;28;20032;-96
2021/10/26 04:08:46;;;;;;;38.85;21.30;;;0.70;94.90;;;;;;5074116;28;20045;-96
2021/10/26 04:11:18;;;;;;;95.57;43.97;;;0.60;94.90;;;;;;5075450;28;20020;-96
2021/10/26 04:13:45;;;;;;;58.25;28.77;;;0.60;94.90;;;;;;5074773;28;20052;-96
2021/10/26 04:16:11;;;;;;;52.55;25.33;;;0.60;94.90;;;;;;5074798;28;20032;-96
2021/10/26 04:18:37;;;;;;;87.25;41.30;;;0.60;94.90;;;;;;5074965;28;20467;-96
2021/10/26 04:21:03;;;;;;;122.32;60.78;;;0.60;94.90;;;;;;5073341;28;20052;-96
2021/10/26 04:23:30;;;;;;;131.85;67.63;;;0.60;94.90;;;;;;5074629;28;20024;-96
2021/10/26 04:25:56;;;;;;;87.05;44.17;;;0.60;94.90;;;;;;5074152;28;20031;-96
2021/10/26 04:28:22;;;;;;;48.67;26.35;;;0.60;95.00;;;;;;5055958;28;20032;-96
2021/10/26 04:30:49;;;;;;;51.40;25.77;;;0.50;95.00;;;;;;5072966;28;20066;-95
2021/10/26 04:33:16;;;;;;;118.63;56.88;;;0.60;95.00;;;;;;5073496;28;20017;-96
2021/10/26 04:35:42;;;;;;;81.35;41.70;;;0.50;95.10;;;;;;5056739;28;20463;-95
2021/10/26 04:38:08;;;;;;;67.93;34.85;;;0.50;95.00;;;;;;5076123;28;20092;-94
2021/10/26 04:40:34;;;;;;;77.38;40.00;;;0.50;95.20;;;;;;5074950;28;20050;-93
2021/10/26 04:43:01;;;;;;;56.55;30.85;;;0.50;95.10;;;;;;5073880;28;20067;-93
2021/10/26 04:45:31;;;;;;;45.85;26.05;;;0.60;95.10;;;;;;5074647;28;20025;-94
2021/10/26 15:35:20;;;;;;;52.88;24.48;;;5.40;86.90;;;;;;5051668;28;20032;-88
2021/10/26 15:37:46;;;;;;;55.67;24.17;;;5.40;86.90;;;;;;5050252;28;20403;-88
2021/10/26 15:40:12;;;;;;;48.42;23.50;;;5.40;87.20;;;;;;5050173;28;20025;-88
2021/10/26 15:42:38;;;;;;;54.75;23.90;;;5.40;87.40;;;;;;5050254;28;20431;-88
2021/10/26 15:45:04;;;;;;;54.63;24.08;;;5.40;87.40;;;;;;5050190;28;20056;-88
2021/10/26 15:47:32;;;;;;;46.75;21.38;;;5.40;87.30;;;;;;5050221;28;20030;-88
2021/10/26 15:49:59;;;;;;;41.80;21.13;;;5.50;87.30;;;;;;5049955;28;20056;-88
2021/10/26 15:52:25;;;;;;;42.47;20.70;;;5.50;87.30;;;;;;5050074;28;20040;-89
2021/10/26 15:54:50;;;;;;;45.92;21.58;;;5.60;87.20;;;;;;5050077;28;20108;-88
2021/10/26 15:57:16;;;;;;;53.40;26.30;;;5.60;87.00;;;;;;5049899;28;20032;-90
2021/10/26 15:59:42;;;;;;;62.00;29.02;;;5.60;87.00;;;;;;5050237;28;20026;-89
2021/10/26 16:02:07;;;;;;;67.28;30.50;;;5.60;86.60;;;;;;5049929;28;20021;-89
2021/10/26 16:04:33;;;;;;;47.45;24.38;;;5.60;86.90;;;;;;5050137;28;20017;-90
2021/10/26 16:07:00;;;;;;;49.90;23.42;;;5.60;86.70;;;;;;5051049;28;20463;-90
2021/10/26 16:09:44;;;;;;;41.35;20.67;;;5.60;86.30;;;;;;5050128;28;20102;-90
2021/10/26 16:12:12;;;;;;;44.08;21.20;;;5.60;86.50;;;;;;5049837;28;20052;-89
2021/10/26 16:14:41;;;;;;;45.08;20.75;;;5.60;86.60;;;;;;5049824;28;20029;-89
2021/10/26 16:17:07;;;;;;;36.65;19.23;;;5.60;86.60;;;;;;5049768;28;20017;-89
2021/10/26 16:19:33;;;;;;;36.05;20.25;;;5.50;86.70;;;;;;5049825;28;20028;-89
2021/10/26 16:21:58;;;;;;;38.42;21.23;;;5.50;86.70;;;;;;5049681;28;20075;-89
2021/10/26 16:24:25;;;;;;;41.70;19.52;;;5.40;86.80;;;;;;5049671;28;20029;-89
2021/10/26 16:26:51;;;;;;;36.17;19.30;;;5.40;86.50;;;;;;5049086;28;20051;-90
2021/10/26 16:29:18;;;;;;;38.38;21.08;;;5.40;86.60;;;;;;5049434;28;20025;-89
2021/10/26 16:31:47;;;;;;;35.92;19.58;;;5.40;86.50;;;;;;5049589;28;20025;-90
2021/10/26 16:34:14;;;;;;;33.40;17.52;;;5.40;86.40;;;;;;5049511;28;20025;-88
2021/10/26 16:36:41;;;;;;;33.13;17.55;;;5.40;86.20;;;;;;5046005;28;20025;-89
2021/10/26 16:39:09;;;;;;;28.35;16.20;;;5.40;86.50;;;;;;5036113;28;20033;-89
2021/10/26 16:41:35;;;;;;;28.02;15.43;;;5.40;86.20;;;;;;5035953;28;20029;-89
2021/10/26 16:44:06;;;;;;;27.27;15.75;;;5.40;86.10;;;;;;5036060;28;20025;-89
2021/10/26 16:46:35;;;;;;;29.30;15.30;;;5.40;86.10;;;;;;5035779;28;20026;-88
2021/10/26 16:49:03;;;;;;;25.77;13.25;;;5.40;86.50;;;;;;5035964;28;20021;-88
2021/10/26 16:51:30;;;;;;;89.75;34.75;;;5.30;86.50;;;;;;5035862;28;20025;-88
2021/10/26 16:53:56;;;;;;;57.72;26.88;;;5.30;86.00;;;;;;5037010;28;20549;-88
2021/10/26 16:56:25;;;;;;;37.10;20.25;;;5.30;86.20;;;;;;5036102;28;20029;-89
2021/10/26 16:58:52;;;;;;;40.38;20.20;;;5.30;86.20;;;;;;5035836;28;20083;-88
2021/10/26 17:01:24;;;;;;;33.38;18.02;;;5.30;86.10;;;;;;5035572;28;20029;-88
2021/10/26 17:03:50;;;;;;;33.42;18.08;;;5.30;86.10;;;;;;5035615;28;20027;-89
2021/10/26 17:06:18;;;;;;;37.38;19.33;;;5.30;86.30;;;;;;5035187;28;20045;-88
2021/10/26 17:08:45;;;;;;;35.80;17.90;;;5.30;86.20;;;;;;5035279;28;20057;-89
2021/10/26 17:11:11;;;;;;;37.28;20.15;;;5.20;85.90;;;;;;5035997;28;20368;-88
2021/10/26 17:13:39;;;;;;;38.42;18.75;;;5.20;85.50;;;;;;5036349;28;20112;-88
2021/10/26 17:16:06;;;;;;;29.73;16.25;;;5.20;85.60;;;;;;5035397;28;20033;-88
2021/10/26 17:18:32;;;;;;;46.38;23.48;;;5.20;85.70;;;;;;5035367;28;20049;-88
2021/10/26 17:20:58;;;;;;;39.00;20.25;;;5.20;85.60;;;;;;5035367;28;20048;-88
2021/10/26 17:23:24;;;;;;;39.95;20.55;;;5.10;85.40;;;;;;5034929;28;20037;-88
2021/10/26 17:25:50;;;;;;;38.28;20.25;;;5.10;85.50;;;;;;5034824;28;20062;-87
2021/10/26 17:28:20;;;;;;;39.53;20.98;;;5.00;85.80;;;;;;5036068;28;20535;-88
2021/10/26 17:30:49;;;;;;;45.40;23.17;;;5.00;85.40;;;;;;5035113;28;20028;-88
2021/10/26 17:33:14;;;;;;;54.65;33.33;;;5.00;85.60;;;;;;5035049;28;20024;-88
2021/10/26 17:35:42;;;;;;;56.53;33.42;;;5.00;85.40;;;;;;5035358;28;20030;-88
2021/10/26 17:38:07;;;;;;;53.50;27.10;;;5.00;85.40;;;;;;5034773;28;20037;-87
2021/10/26 17:40:38;;;;;;;46.08;26.27;;;5.00;85.60;;;;;;5034890;28;20503;-88
2021/10/26 17:43:07;;;;;;;44.78;25.73;;;5.00;85.50;;;;;;5034935;28;20026;-88
2021/10/26 17:45:33;;;;;;;46.15;24.52;;;5.00;85.20;;;;;;5034697;28;20035;-88
2021/10/26 17:48:23;;;;;;;49.47;25.55;;;5.00;84.70;;;;;;5035395;28;20032;-88
2021/10/26 17:50:51;;;;;;;47.47;24.85;;;5.00;84.90;;;;;;5034501;28;20476;-88
2021/10/26 17:53:17;;;;;;;36.22;21.38;;;5.00;84.90;;;;;;5034662;28;20388;-87
2021/10/26 17:55:43;;;;;;;39.78;21.65;;;5.00;84.90;;;;;;5034496;28;20025;-87
2021/10/26 17:58:08;;;;;;;38.42;21.08;;;5.00;84.90;;;;;;5034392;28;20025;-88
2021/10/26 18:03:56;;;;;;;48.03;29.60;;;5.00;84.40;;;;;;5015714;28;20034;-88
2021/10/26 18:06:24;;;;;;;50.95;26.67;;;5.00;84.50;;;;;;5014565;28;20122;-88
2021/10/26 18:08:58;;;;;;;42.08;22.88;;;5.00;84.40;;;;;;5014619;28;20022;-87
2021/10/26 18:11:24;;;;;;;44.95;22.30;;;4.90;84.40;;;;;;5014533;28;20032;-87
2021/10/26 18:13:49;;;;;;;37.45;17.15;;;4.90;84.30;;;;;;5014358;28;20018;-88
2021/10/26 18:16:15;;;;;;;71.05;28.80;;;4.90;84.40;;;;;;5014439;28;20388;-86
2021/10/26 18:18:41;;;;;;;58.08;27.13;;;4.90;84.30;;;;;;5015448;28;20051;-88
2021/10/26 18:21:09;;;;;;;72.85;41.13;;;4.90;84.30;;;;;;5014361;28;20038;-88
2021/10/26 18:23:35;;;;;;;125.95;62.47;;;4.90;84.30;;;;;;5014214;28;20029;-88
2021/10/26 18:26:03;;;;;;;80.93;46.40;;;4.90;84.10;;;;;;5013946;28;20086;-88
2021/10/26 18:28:30;;;;;;;85.47;45.83;;;4.90;84.40;;;;;;5014255;28;20026;-89
2021/10/26 18:30:58;;;;;;;64.00;36.50;;;4.80;84.30;;;;;;5014269;28;20048;-88
2021/10/26 18:33:24;;;;;;;53.50;29.55;;;4.80;84.30;;;;;;5014057;28;20025;-88
2021/10/26 18:35:54;;;;;;;51.58;28.50;;;4.70;84.30;;;;;;5014135;28;20033;-88
2021/10/26 18:38:20;;;;;;;37.15;22.15;;;4.70;84.30;;;;;;5013978;28;20080;-87
2021/10/26 18:40:49;;;;;;;36.85;18.95;;;4.70;84.40;;;;;;5014044;28;20034;-87
2021/10/26 18:43:18;;;;;;;35.83;19.83;;;4.60;84.40;;;;;;5014053;28;20040;-87
2021/10/26 18:45:48;;;;;;;29.40;18.23;;;4.60;84.20;;;;;;5013938;28;20030;-87
2021/10/26 18:48:14;;;;;;;29.00;17.13;;;4.60;84.20;;;;;;5021733;28;20045;-91
2021/10/26 18:50:41;;;;;;;27.30;15.95;;;4.50;84.20;;;;;;5033813;28;20032;-91
2021/10/26 18:53:11;;;;;;;29.58;15.38;;;4.50;84.40;;;;;;5033572;28;20071;-91
2021/10/26 18:55:37;;;;;;;33.47;16.38;;;4.50;84.80;;;;;;5033505;28;20031;-91
2021/10/26 18:58:03;;;;;;;33.75;15.93;;;4.40;84.90;;;;;;5033535;28;20029;-91
2021/10/26 19:00:29;;;;;;;31.15;16.55;;;4.30;85.00;;;;;;5032979;28;20026;-91
2021/10/26 19:02:57;;;;;;;31.55;14.88;;;4.20;85.40;;;;;;5033154;28;20029;-91
2021/10/26 19:05:23;;;;;;;34.78;17.70;;;4.10;85.40;;;;;;5033300;28;20036;-91
2021/10/26 19:07:49;;;;;;;33.08;18.35;;;4.10;85.50;;;;;;5033326;28;20021;-91
2021/10/26 19:10:15;;;;;;;37.97;20.25;;;4.00;85.60;;;;;;5033176;28;20174;-91
2021/10/26 19:12:42;;;;;;;40.13;21.35;;;4.00;85.90;;;;;;5033216;28;20017;-91
2021/10/26 19:15:12;;;;;;;34.42;21.35;;;3.90;86.00;;;;;;5033298;28;20124;-91
2021/10/26 19:17:39;;;;;;;36.42;20.23;;;4.00;86.20;;;;;;5033215;28;20033;-91
2021/10/26 19:20:07;;;;;;;31.42;20.67;;;3.90;86.40;;;;;;5033025;28;20029;-90
2021/10/26 19:22:33;;;;;;;34.78;19.90;;;3.90;86.20;;;;;;5032700;28;20021;-91
2021/10/26 19:25:00;;;;;;;32.72;17.00;;;3.90;85.90;;;;;;5033060;28;20140;-91
2021/10/26 19:27:26;;;;;;;29.73;15.95;;;3.90;85.90;;;;;;5032986;28;20021;-91
2021/10/26 19:29:56;;;;;;;32.60;14.55;;;3.90;85.90;;;;;;5033158;28;20049;-91
2021/10/26 19:32:22;;;;;;;25.92;14.82;;;3.90;85.60;;;;;;5032948;28;20105;-91
2021/10/26 19:34:48;;;;;;;28.85;15.20;;;3.90;85.00;;;;;;5033197;28;20403;-90
2021/10/26 19:37:14;;;;;;;35.78;17.10;;;4.00;85.10;;;;;;5033019;28;20112;-91
2021/10/26 19:39:41;;;;;;;34.83;18.35;;;4.00;84.90;;;;;;5033124;28;20021;-90
2021/10/26 19:42:07;;;;;;;25.88;14.48;;;4.00;84.70;;;;;;5032825;28;20018;-90
2021/10/26 19:44:34;;;;;;;26.98;15.32;;;4.00;84.60;;;;;;5032980;28;20022;-91
2021/10/26 19:47:02;;;;;;;26.98;12.63;;;4.10;84.50;;;;;;5032688;28;20495;-89
2021/10/26 19:49:28;;;;;;;30.13;16.35;;;4.10;84.50;;;;;;5032977;28;20029;-91
2021/10/26 19:51:53;;;;;;;24.83;13.70;;;4.10;84.20;;;;;;5032828;28;20460;-88
2021/10/26 19:54:21;;;;;;;26.95;14.85;;;4.10;84.00;;;;;;5032943;28;20431;-90
2021/10/26 19:56:48;;;;;;;23.33;12.55;;;4.10;83.80;;;;;;5032778;28;20083;-89
2021/10/26 19:59:16;;;;;;;24.95;12.23;;;4.10;83.70;;;;;;5032918;28;20025;-90
2021/10/26 20:01:43;;;;;;;27.73;18.08;;;4.10;83.50;;;;;;5032875;28;20030;-90
2021/10/26 20:04:09;;;;;;;30.13;17.67;;;4.20;83.60;;;;;;5032756;28;20546;-90
2021/10/26 20:06:36;;;;;;;26.58;15.80;;;4.20;83.70;;;;;;5032608;28;20029;-90
2021/10/26 20:09:02;;;;;;;22.52;12.63;;;4.20;83.60;;;;;;5032837;28;20029;-87
2021/10/26 20:11:30;;;;;;;22.52;11.63;;;4.20;83.50;;;;;;5032829;28;20037;-88
2021/10/26 20:13:58;;;;;;;19.75;10.57;;;4.20;83.60;;;;;;5036531;28;20112;-88
2021/10/26 20:16:27;;;;;;;26.30;14.77;;;4.20;83.60;;;;;;5037422;28;20075;-88
2021/10/26 20:18:56;;;;;;;23.38;14.27;;;4.10;83.10;;;;;;5036492;28;20021;-86
2021/10/26 20:21:27;;;;;;;21.98;12.88;;;4.10;83.50;;;;;;5036280;28;20108;-87
2021/10/26 20:29:16;;;;;;;31.35;16.17;;;4.20;83.20;;;;;;5037647;28;20025;-88
2021/10/26 20:31:41;;;;;;;26.88;12.65;;;4.10;83.10;;;;;;5037691;28;20029;-87
2021/10/26 20:34:11;;;;;;;25.70;11.65;;;4.20;83.30;;;;;;5036194;28;20029;-87
2021/10/26 20:36:38;;;;;;;20.95;11.40;;;4.10;83.70;;;;;;5036122;28;20487;-87
2021/10/26 20:39:09;;;;;;;25.33;12.27;;;4.10;83.00;;;;;;5037236;28;20130;-87
2021/10/26 20:41:35;;;;;;;29.48;13.27;;;4.20;83.10;;;;;;5035940;28;20470;-86
2021/10/26 20:44:06;;;;;;;29.50;13.35;;;4.10;83.20;;;;;;5036074;28;20423;-87
2021/10/26 20:46:40;;;;;;;23.27;11.48;;;4.10;83.20;;;;;;5035870;28;20029;-87
2021/10/26 20:49:08;;;;;;;21.50;11.65;;;4.10;83.20;;;;;;5035827;28;20864;-86
2021/10/26 20:51:35;;;;;;;21.50;11.55;;;4.10;83.20;;;;;;5035770;28;20464;-87
2021/10/26 20:54:14;;;;;;;27.80;11.88;;;4.10;82.90;;;;;;5035623;28;20026;-87
2021/10/26 20:56:42;;;;;;;31.92;15.00;;;4.00;83.20;;;;;;5035740;28;20032;-86
2021/10/26 20:59:10;;;;;;;30.27;16.70;;;4.10;83.10;;;;;;5036790;28;20040;-88
2021/10/26 21:01:37;;;;;;;29.50;14.50;;;4.00;83.10;;;;;;5035847;28;20032;-88
2021/10/26 21:04:05;;;;;;;26.30;13.40;;;4.10;83.20;;;;;;5035594;28;20026;-88
2021/10/26 21:06:35;;;;;;;25.08;13.20;;;4.00;83.20;;;;;;5035496;28;20032;-87
2021/10/26 21:09:02;;;;;;;27.38;13.63;;;4.00;83.30;;;;;;5035695;28;20108;-88
2021/10/26 21:11:27;;;;;;;21.27;11.52;;;4.00;83.40;;;;;;5037010;28;20026;-88
2021/10/26 21:13:54;;;;;;;27.20;12.35;;;3.90;83.30;;;;;;5035425;28;20491;-87
2021/10/26 21:16:21;;;;;;;20.80;11.18;;;3.90;83.20;;;;;;5035422;28;20026;-88
2021/10/26 21:18:49;;;;;;;20.63;10.15;;;3.90;83.70;;;;;;5036747;28;20502;-88
2021/10/26 21:21:14;;;;;;;16.45;9.82;;;3.90;84.30;;;;;;5035376;28;20032;-88
2021/10/26 21:23:40;;;;;;;17.15;10.15;;;3.90;83.80;;;;;;5036286;28;20022;-88
2021/10/26 21:26:06;;;;;;;19.67;11.73;;;3.80;83.80;;;;;;5035171;28;20492;-88
2021/10/26 21:28:34;;;;;;;20.80;12.32;;;3.80;83.90;;;;;;5035059;28;20017;-88
2021/10/26 21:31:00;;;;;;;23.88;14.00;;;3.80;84.00;;;;;;5035122;28;20120;-88
2021/10/26 21:33:33;;;;;;;33.70;18.98;;;3.70;84.00;;;;;;5035306;28;20033;-88
2021/10/26 21:36:01;;;;;;;52.70;26.40;;;3.80;84.10;;;;;;5036515;28;20021;-88
2021/10/26 21:38:26;;;;;;;47.80;23.88;;;3.80;84.10;;;;;;5035024;28;20033;-88
2021/10/26 21:40:52;;;;;;;49.92;23.98;;;3.70;84.00;;;;;;5035141;28;20051;-88
2021/10/26 21:43:19;;;;;;;38.08;20.98;;;3.70;84.10;;;;;;5035994;28;20025;-87
2021/10/26 21:45:45;;;;;;;41.15;19.05;;;3.70;84.20;;;;;;5035898;28;20104;-87
2021/10/26 21:48:11;;;;;;;28.77;15.68;;;3.70;84.20;;;;;;5034667;28;20113;-87
2021/10/26 21:50:38;;;;;;;31.27;18.75;;;3.70;84.30;;;;;;5034867;28;20018;-88
2021/10/26 21:53:04;;;;;;;28.88;15.27;;;3.70;84.60;;;;;;5034757;28;20025;-88
2021/10/26 21:55:30;;;;;;;27.20;14.48;;;3.60;84.40;;;;;;5034861;28;20025;-87
2021/10/26 21:57:56;;;;;;;28.00;14.15;;;3.70;84.40;;;;;;5034540;28;20032;-87
2021/10/26 22:00:24;;;;;;;31.50;15.50;;;3.60;84.20;;;;;;5034650;28;20084;-87
2021/10/26 22:02:51;;;;;;;36.35;18.70;;;3.70;84.40;;;;;;5034568;28;20040;-88
2021/10/26 22:05:17;;;;;;;29.85;15.45;;;3.60;84.50;;;;;;5034400;28;20026;-88
2021/10/26 22:07:43;;;;;;;36.13;16.67;;;3.70;84.50;;;;;;5035775;28;20089;-87
2021/10/26 22:10:09;;;;;;;43.72;17.08;;;3.60;84.40;;;;;;5034345;28;20033;-87
2021/10/26 22:12:36;;;;;;;32.33;17.63;;;3.60;85.10;;;;;;5034283;28;20104;-88
2021/10/26 22:15:05;;;;;;;38.22;18.30;;;3.60;84.50;;;;;;5035483;28;20045;-88
2021/10/26 22:17:31;;;;;;;33.28;17.27;;;3.60;84.40;;;;;;5034443;28;20387;-87
2021/10/26 22:19:56;;;;;;;37.00;18.92;;;3.70;84.50;;;;;;5034315;28;20056;-88
2021/10/26 22:22:23;;;;;;;43.40;21.33;;;3.70;84.50;;;;;;5034157;28;20053;-88
2021/10/26 22:24:50;;;;;;;33.65;17.58;;;3.70;84.50;;;;;;5034068;28;20021;-88
2021/10/26 22:27:17;;;;;;;36.90;18.98;;;3.70;84.50;;;;;;5034862;28;20033;-87
2021/10/26 22:29:43;;;;;;;25.88;13.93;;;3.70;84.40;;;;;;5033966;28;20472;-88
2021/10/26 22:32:09;;;;;;;29.77;15.60;;;3.70;84.50;;;;;;5033972;28;20029;-88
2021/10/26 22:34:35;;;;;;;23.77;12.50;;;3.70;84.50;;;;;;5033573;28;20471;-87
2021/10/26 22:37:00;;;;;;;31.05;17.35;;;3.60;84.40;;;;;;5033831;28;20032;-88
2021/10/26 22:39:26;;;;;;;26.92;13.70;;;3.60;84.50;;;;;;5033958;28;20033;-87
2021/10/26 22:41:52;;;;;;;23.45;13.25;;;3.60;84.50;;;;;;5033755;28;20030;-88
2021/10/26 22:44:19;;;;;;;31.30;15.15;;;3.60;84.90;;;;;;5033922;28;20029;-87
2021/10/26 22:46:45;;;;;;;25.38;13.55;;;3.50;84.90;;;;;;5034723;28;20017;-88
2021/10/26 22:49:11;;;;;;;30.77;15.90;;;3.50;84.80;;;;;;5033775;28;20021;-87
2021/10/26 22:51:37;;;;;;;31.48;14.32;;;3.50;84.90;;;;;;5033798;28;20048;-88
2021/10/26 22:54:03;;;;;;;28.67;16.45;;;3.50;85.00;;;;;;5033701;28;20029;-88
2021/10/26 22:56:29;;;;;;;32.33;14.93;;;3.50;84.90;;;;;;5033485;28;20045;-88
2021/10/26 22:58:54;;;;;;;29.80;15.15;;;3.50;85.00;;;;;;5033782;28;20415;-88
2021/10/26 23:01:21;;;;;;;33.80;16.15;;;3.40;85.00;;;;;;5034268;28;20026;-87
2021/10/26 23:03:48;;;;;;;34.90;17.55;;;3.40;85.10;;;;;;5033454;28;20025;-88
2021/10/26 23:06:14;;;;;;;31.85;15.63;;;3.40;85.10;;;;;;5033469;28;20120;-88
2021/10/26 23:08:40;;;;;;;24.20;13.27;;;3.40;85.20;;;;;;5034018;28;20053;-88
2021/10/26 23:11:07;;;;;;;25.60;12.85;;;3.40;85.30;;;;;;5033496;28;20477;-87
2021/10/26 23:13:33;;;;;;;22.13;12.18;;;3.40;85.30;;;;;;5033293;28;20091;-86
2021/10/26 23:15:59;;;;;;;24.65;11.77;;;3.40;85.30;;;;;;5033352;28;20025;-88
2021/10/26 23:18:25;;;;;;;26.40;12.57;;;3.40;85.40;;;;;;5033240;28;20519;-88
2021/10/26 23:20:50;;;;;;;24.77;13.02;;;3.30;85.40;;;;;;5034354;28;20044;-87
2021/10/26 23:23:16;;;;;;;22.83;11.07;;;3.30;85.60;;;;;;5033211;28;20127;-88
2021/10/26 23:25:42;;;;;;;20.92;10.25;;;3.30;85.60;;;;;;5034059;28;20049;-88
2021/10/26 23:28:08;;;;;;;28.95;14.30;;;3.30;85.50;;;;;;5033282;28;20049;-87
2021/10/26 23:30:35;;;;;;;30.63;14.65;;;3.30;85.50;;;;;;5033200;28;20053;-88